Time;durP1;ratioP1;P1;durP2;ratioP2;P2;SDS_P1;SDS_P2;PMS_P1;PMS_P2;Temp;Humidity;BMP_temperature;BMP_pressure;BME280_temperature;BME280_humidity;BME280_pressure;Samples;Min_cycle;Max_cycle;Signal;HPM_P1;HPM_P2
2023/10/26 00:00:24;;;;;;;;;;;;;;;;;;5116056;28;19995;-29
2023/10/26 00:02:50;;;;;;;;;;;;;;;;;;5115959;28;19933;-23
2023/10/26 00:05:16;;;;;;;;;;;;;;;;;;5115733;28;20363;-24
2023/10/26 00:07:42;;;;;;;;;;;;;;;;;;5115876;28;20231;-25
2023/10/26 00:10:07;;;;;;;;;;;;;;;;;;5115868;28;20342;-25
2023/10/26 00:12:33;;;;;;;;;;;;;;;;;;5115712;28;19944;-28
2023/10/26 00:14:59;;;;;;;;;;;;;;;;;;5115889;28;19922;-24
2023/10/26 00:17:25;;;;;;;;;;;;;;;;;;5115679;28;19914;-23
2023/10/26 00:19:54;;;;;;;;;;;;;;;;;;5115906;28;19920;-26
2023/10/26 00:22:20;;;;;;;;;;;;;;;;;;5115496;28;19907;-24
2023/10/26 00:24:46;;;;;;;;;;;;;;;;;;5115874;28;20342;-25
2023/10/26 00:27:12;;;;;;;;;;;;;;;;;;5115551;28;20398;-25
2023/10/26 00:29:38;;;;;;;;;;;;;;;;;;5115544;28;19919;-23
2023/10/26 00:32:05;;;;;;;;;;;;;;;;;;5115465;28;20044;-27
2023/10/26 00:34:31;;;;;;;;;;;;;;;;;;5115367;28;19922;-24
2023/10/26 00:36:57;;;;;;;;;;;;;;;;;;5115692;28;19992;-24
2023/10/26 00:39:23;;;;;;;;;;;;;;;;;;5114617;28;19915;-28
2023/10/26 00:41:49;;;;;;;;;;;;;;;;;;5115303;28;19976;-23
2023/10/26 00:44:15;;;;;;;;;;;;;;;;;;5115305;28;19914;-25
2023/10/26 00:46:41;;;;;;;;;;;;;;;;;;5115579;28;19947;-22
2023/10/26 00:49:07;;;;;;;;;;;;;;;;;;5115466;28;19918;-23
2023/10/26 00:51:33;;;;;;;;;;;;;;;;;;5115199;28;19907;-20
2023/10/26 00:54:00;;;;;;;;;;;;;;;;;;5115107;28;19914;-19
2023/10/26 00:56:26;;;;;;;;;;;;;;;;;;5115367;28;19911;-25
2023/10/26 00:58:52;;;;;;;;;;;;;;;;;;5115447;28;20369;-24
2023/10/26 01:01:18;;;;;;;;;;;;;;;;;;5115194;28;19933;-29
2023/10/26 01:03:44;;;;;;;;;;;;;;;;;;5115133;28;20334;-24
2023/10/26 01:06:10;;;;;;;;;;;;;;;;;;5114976;28;19998;-31
2023/10/26 01:08:35;;;;;;;;;;;;;;;;;;5115120;28;19988;-24
2023/10/26 01:11:01;;;;;;;;;;;;;;;;;;5097158;28;19947;-23
2023/10/26 01:13:29;;;;;;;;;;;;;;;;;;5115305;28;20352;-29
2023/10/26 01:15:55;;;;;;;;;;;;;;;;;;5114970;28;19912;-24
2023/10/26 01:18:21;;;;;;;;;;;;;;;;;;5115288;28;20356;-27
2023/10/26 01:20:47;;;;;;;;;;;;;;;;;;5115228;28;19935;-26
2023/10/26 01:23:13;;;;;;;;;;;;;;;;;;5114898;28;19914;-23
2023/10/26 01:25:39;;;;;;;;;;;;;;;;;;5114973;28;19939;-22
2023/10/26 01:28:07;;;;;;;;;;;;;;;;;;5114972;28;19916;-25
2023/10/26 01:30:33;;;;;;;;;;;;;;;;;;5114864;28;19952;-23
2023/10/26 01:32:58;;;;;;;;;;;;;;;;;;5114842;28;20010;-23
2023/10/26 01:35:24;;;;;;;;;;;;;;;;;;5096853;28;20252;-26
2023/10/26 01:37:50;;;;;;;;;;;;;;;;;;5114824;28;19908;-23
2023/10/26 01:40:16;;;;;;;;;;;;;;;;;;5115120;28;19908;-20
2023/10/26 01:42:42;;;;;;;;;;;;;;;;;;5114745;28;19919;-22
2023/10/26 01:45:08;;;;;;;;;;;;;;;;;;5115083;28;19911;-30
2023/10/26 01:47:35;;;;;;;;;;;;;;;;;;5114690;28;19939;-25
2023/10/26 01:50:02;;;;;;;;;;;;;;;;;;5114721;28;19908;-29
2023/10/26 01:52:28;;;;;;;;;;;;;;;;;;5118246;28;20274;-25
2023/10/26 01:54:54;;;;;;;;;;;;;;;;;;5118440;28;19912;-29
2023/10/26 01:57:20;;;;;;;;;;;;;;;;;;5100473;28;19919;-28
2023/10/26 01:59:46;;;;;;;;;;;;;;;;;;5118714;28;19907;-27
2023/10/26 02:02:12;;;;;;;;;;;;;;;;;;5118520;28;20375;-29
2023/10/26 02:04:38;;;;;;;;;;;;;;;;;;5118317;28;19915;-24
2023/10/26 02:07:04;;;;;;;;;;;;;;;;;;5118583;28;19908;-25
2023/10/26 02:09:29;;;;;;;;;;;;;;;;;;5118246;28;19915;-25
2023/10/26 02:11:55;;;;;;;;;;;;;;;;;;5118175;28;20007;-22
2023/10/26 02:14:21;;;;;;;;;;;;;;;;;;5118342;28;19907;-24
2023/10/26 02:16:47;;;;;;;;;;;;;;;;;;5118394;28;19930;-26
2023/10/26 02:19:16;;;;;;;;;;;;;;;;;;5117989;28;19999;-22
2023/10/26 02:21:42;;;;;;;;;;;;;;;;;;5117939;28;19908;-26
2023/10/26 02:24:07;;;;;;;;;;;;;;;;;;5118351;28;19964;-25
2023/10/26 02:26:33;;;;;;;;;;;;;;;;;;5117890;28;19915;-25
2023/10/26 02:28:59;;;;;;;;;;;;;;;;;;5117850;28;19914;-26
2023/10/26 02:31:25;;;;;;;;;;;;;;;;;;5118064;28;20361;-26
2023/10/26 02:33:51;;;;;;;;;;;;;;;;;;5117688;28;19976;-26
2023/10/26 02:36:17;;;;;;;;;;;;;;;;;;5117684;28;19922;-24
2023/10/26 02:38:43;;;;;;;;;;;;;;;;;;5117675;28;19919;-27
2023/10/26 02:41:09;;;;;;;;;;;;;;;;;;5099629;28;20053;-26
2023/10/26 02:43:35;;;;;;;;;;;;;;;;;;5117513;28;20355;-24
2023/10/26 02:46:01;;;;;;;;;;;;;;;;;;5117494;28;20009;-25
2023/10/26 02:48:27;;;;;;;;;;;;;;;;;;5117777;28;19943;-26
2023/10/26 02:50:53;;;;;;;;;;;;;;;;;;5117452;28;20294;-30
2023/10/26 02:53:19;;;;;;;;;;;;;;;;;;5117342;28;19912;-26
2023/10/26 02:55:45;;;;;;;;;;;;;;;;;;5117269;28;19938;-24
2023/10/26 02:58:11;;;;;;;;;;;;;;;;;;5117342;28;19908;-27
2023/10/26 03:00:37;;;;;;;;;;;;;;;;;;5117211;28;19965;-30
2023/10/26 03:03:03;;;;;;;;;;;;;;;;;;5116395;28;19976;-23
2023/10/26 03:05:29;;;;;;;;;;;;;;;;;;5117009;28;19924;-25
2023/10/26 03:07:55;;;;;;;;;;;;;;;;;;5117107;28;19915;-25
2023/10/26 03:10:22;;;;;;;;;;;;;;;;;;5117276;28;20007;-26
2023/10/26 03:12:48;;;;;;;;;;;;;;;;;;5116865;28;20346;-27
2023/10/26 03:15:14;;;;;;;;;;;;;;;;;;5117083;28;19920;-24
2023/10/26 03:17:40;;;;;;;;;;;;;;;;;;5117124;28;20288;-24
2023/10/26 03:20:06;;;;;;;;;;;;;;;;;;5117124;28;19907;-27
2023/10/26 03:22:33;;;;;;;;;;;;;;;;;;5116684;28;19907;-27
2023/10/26 03:24:59;;;;;;;;;;;;;;;;;;5116775;28;19919;-26
2023/10/26 03:27:25;;;;;;;;;;;;;;;;;;5116693;28;20242;-23
2023/10/26 03:29:51;;;;;;;;;;;;;;;;;;5116654;28;20232;-26
2023/10/26 03:32:17;;;;;;;;;;;;;;;;;;5116813;28;19907;-22
2023/10/26 03:34:43;;;;;;;;;;;;;;;;;;5116419;28;19911;-23
2023/10/26 03:37:09;;;;;;;;;;;;;;;;;;5116474;28;19960;-27
2023/10/26 03:39:35;;;;;;;;;;;;;;;;;;5116566;28;19919;-24
2023/10/26 03:42:01;;;;;;;;;;;;;;;;;;5116235;28;20326;-25
2023/10/26 03:44:28;;;;;;;;;;;;;;;;;;5116230;28;19995;-24
2023/10/26 03:46:54;;;;;;;;;;;;;;;;;;5116540;28;20255;-25
2023/10/26 03:49:20;;;;;;;;;;;;;;;;;;5116357;28;20023;-25
2023/10/26 03:51:46;;;;;;;;;;;;;;;;;;5098120;28;19935;-24
2023/10/26 03:54:12;;;;;;;;;;;;;;;;;;5116210;28;19908;-22
2023/10/26 03:56:38;;;;;;;;;;;;;;;;;;5115960;28;20262;-29
2023/10/26 03:59:04;;;;;;;;;;;;;;;;;;5115983;28;19908;-25
2023/10/26 04:04:06;;;;;;;;;;;;;;;;;;5073825;22;19924;-22
2023/10/26 04:06:32;;;;;;;;;;;;;;;;;;5075158;28;19970;-22
2023/10/26 04:08:58;;;;;;;;;;;;;;;;;;5075022;28;20238;-21
2023/10/26 04:11:24;;;;;;;;;;;;;;;;;;5075015;28;19909;-21
2023/10/26 04:13:50;;;;;;;;;;;;;;;;;;5074579;28;19909;-20
2023/10/26 04:16:16;;;;;;;;;;;;;;;;;;5074654;28;19913;-23
2023/10/26 04:18:42;;;;;;;;;;;;;;;;;;5074689;28;19919;-23
2023/10/26 04:21:08;;;;;;;;;;;;;;;;;;5057055;28;19909;-22
2023/10/26 04:23:34;;;;;;;;;;;;;;;;;;5057075;28;20396;-22
2023/10/26 04:26:00;;;;;;;;;;;;;;;;;;5074696;28;19908;-20
2023/10/26 04:28:26;;;;;;;;;;;;;;;;;;5074958;28;20364;-20
2023/10/26 04:30:53;;;;;;;;;;;;;;;;;;5074351;28;19947;-20
2023/10/26 04:33:19;;;;;;;;;;;;;;;;;;5056809;28;20354;-21
2023/10/26 04:35:45;;;;;;;;;;;;;;;;;;5074641;28;19913;-22
2023/10/26 04:38:11;;;;;;;;;;;;;;;;;;5074700;28;19908;-21
2023/10/26 04:40:37;;;;;;;;;;;;;;;;;;5074657;28;19909;-20
2023/10/26 04:43:03;;;;;;;;;;;;;;;;;;5074587;28;19908;-21
2023/10/26 04:45:29;;;;;;;;;;;;;;;;;;5075130;28;19915;-22
2023/10/26 04:47:55;;;;;;;;;;;;;;;;;;5074534;28;20250;-22
2023/10/26 04:50:22;;;;;;;;;;;;;;;;;;5056505;28;20303;-23
2023/10/26 04:52:48;;;;;;;;;;;;;;;;;;5074347;28;20361;-21
2023/10/26 04:55:14;;;;;;;;;;;;;;;;;;5074346;28;19934;-22
2023/10/26 04:57:40;;;;;;;;;;;;;;;;;;5056500;28;19909;-20
2023/10/26 05:00:09;;;;;;;;;;;;;;;;;;5074174;28;19936;-22
2023/10/26 05:02:35;;;;;;;;;;;;;;;;;;5073925;28;19981;-21
2023/10/26 05:05:03;;;;;;;;;;;;;;;;;;5074690;28;19912;-20
2023/10/26 05:07:30;;;;;;;;;;;;;;;;;;5056455;28;20012;-23
2023/10/26 05:09:55;;;;;;;;;;;;;;;;;;5074130;28;19991;-21
2023/10/26 05:12:21;;;;;;;;;;;;;;;;;;5074175;28;19956;-20
2023/10/26 05:14:47;;;;;;;;;;;;;;;;;;5073971;28;20339;-21
2023/10/26 05:17:13;;;;;;;;;;;;;;;;;;5056092;28;19909;-21
2023/10/26 05:19:39;;;;;;;;;;;;;;;;;;5073646;28;20299;-21
2023/10/26 05:22:05;;;;;;;;;;;;;;;;;;5073636;28;19909;-22
2023/10/26 05:24:32;;;;;;;;;;;;;;;;;;5073945;28;19985;-22
2023/10/26 05:26:58;;;;;;;;;;;;;;;;;;5077167;28;19909;-21
2023/10/26 05:29:24;;;;;;;;;;;;;;;;;;5077939;28;19915;-20
2023/10/26 05:31:50;;;;;;;;;;;;;;;;;;5077670;28;20301;-20
2023/10/26 05:34:16;;;;;;;;;;;;;;;;;;5077802;28;19962;-23
2023/10/26 05:36:42;;;;;;;;;;;;;;;;;;5059775;28;20375;-23
2023/10/26 05:39:08;;;;;;;;;;;;;;;;;;5077777;28;19978;-24
2023/10/26 05:41:34;;;;;;;;;;;;;;;;;;5077639;28;20006;-22
2023/10/26 05:44:00;;;;;;;;;;;;;;;;;;5077585;28;20018;-19
2023/10/26 05:46:26;;;;;;;;;;;;;;;;;;5077833;28;19913;-21
2023/10/26 05:48:52;;;;;;;;;;;;;;;;;;5077641;28;19923;-23
2023/10/26 05:51:18;;;;;;;;;;;;;;;;;;5077650;28;19909;-22
2023/10/26 05:53:44;;;;;;;;;;;;;;;;;;5077583;28;19969;-24
2023/10/26 05:56:11;;;;;;;;;;;;;;;;;;5077959;28;19912;-21
2023/10/26 05:58:37;;;;;;;;;;;;;;;;;;5077769;28;19919;-23
2023/10/26 06:01:03;;;;;;;;;;;;;;;;;;5077293;28;20338;-21
2023/10/26 06:03:29;;;;;;;;;;;;;;;;;;5076961;28;19921;-19
2023/10/26 06:05:55;;;;;;;;;;;;;;;;;;5077197;28;20227;-22
2023/10/26 06:08:21;;;;;;;;;;;;;;;;;;5077362;28;19913;-21
2023/10/26 06:10:47;;;;;;;;;;;;;;;;;;5077355;28;19908;-22
2023/10/26 06:13:14;;;;;;;;;;;;;;;;;;5077050;28;20339;-22
2023/10/26 06:15:39;;;;;;;;;;;;;;;;;;5076464;28;19963;-20
2023/10/26 06:18:06;;;;;;;;;;;;;;;;;;5076552;28;19916;-21
2023/10/26 06:20:32;;;;;;;;;;;;;;;;;;5076465;28;19913;-21
2023/10/26 06:22:57;;;;;;;;;;;;;;;;;;5058513;28;19908;-22
2023/10/26 06:25:25;;;;;;;;;;;;;;;;;;5076481;28;19909;-23
2023/10/26 06:27:51;;;;;;;;;;;;;;;;;;5076222;28;19920;-22
2023/10/26 06:30:17;;;;;;;;;;;;;;;;;;5076396;28;19931;-22
2023/10/26 06:32:43;;;;;;;;;;;;;;;;;;5076182;28;20051;-20
2023/10/26 06:35:10;;;;;;;;;;;;;;;;;;5075926;28;19927;-21
2023/10/26 06:37:36;;;;;;;;;;;;;;;;;;5075293;28;20231;-21
2023/10/26 06:40:02;;;;;;;;;;;;;;;;;;5076160;28;19927;-20
2023/10/26 06:42:28;;;;;;;;;;;;;;;;;;5076428;28;19916;-20
2023/10/26 06:44:54;;;;;;;;;;;;;;;;;;5076701;28;19920;-23
2023/10/26 06:47:20;;;;;;;;;;;;;;;;;;5058626;28;19908;-23
2023/10/26 06:49:46;;;;;;;;;;;;;;;;;;5076504;28;19985;-21
2023/10/26 06:52:12;;;;;;;;;;;;;;;;;;5076320;28;19909;-23
2023/10/26 06:54:38;;;;;;;;;;;;;;;;;;5076399;28;19915;-20
2023/10/26 06:57:04;;;;;;;;;;;;;;;;;;5076580;28;19917;-22
2023/10/26 06:59:30;;;;;;;;;;;;;;;;;;5058479;28;19909;-23
2023/10/26 07:01:56;;;;;;;;;;;;;;;;;;5076485;28;20319;-21
2023/10/26 07:04:22;;;;;;;;;;;;;;;;;;5076119;28;20308;-20
2023/10/26 07:06:48;;;;;;;;;;;;;;;;;;5076467;28;19916;-21
2023/10/26 07:09:15;;;;;;;;;;;;;;;;;;5058459;28;20338;-21
2023/10/26 07:11:42;;;;;;;;;;;;;;;;;;5058254;28;20295;-20
2023/10/26 07:14:08;;;;;;;;;;;;;;;;;;5076570;28;20008;-21
2023/10/26 07:16:34;;;;;;;;;;;;;;;;;;5075849;28;19912;-21
2023/10/26 07:19:00;;;;;;;;;;;;;;;;;;5076176;28;20361;-22
2023/10/26 07:21:27;;;;;;;;;;;;;;;;;;5075751;28;19928;-24
2023/10/26 07:23:53;;;;;;;;;;;;;;;;;;5075454;28;20323;-23
2023/10/26 07:26:19;;;;;;;;;;;;;;;;;;5075480;28;19923;-22
2023/10/26 07:28:45;;;;;;;;;;;;;;;;;;5057986;28;19998;-21
2023/10/26 07:31:11;;;;;;;;;;;;;;;;;;5075669;28;20375;-21
2023/10/26 07:33:37;;;;;;;;;;;;;;;;;;5057701;28;19950;-20
2023/10/26 07:36:03;;;;;;;;;;;;;;;;;;5075355;28;19920;-21
2023/10/26 07:38:29;;;;;;;;;;;;;;;;;;5075936;28;19908;-22
2023/10/26 07:40:56;;;;;;;;;;;;;;;;;;5057587;28;19908;-23
2023/10/26 07:43:22;;;;;;;;;;;;;;;;;;5075003;28;19909;-20
2023/10/26 07:45:51;;;;;;;;;;;;;;;;;;5075250;28;19909;-22
2023/10/26 07:48:17;;;;;;;;;;;;;;;;;;5075160;28;20313;-21
2023/10/26 07:50:43;;;;;;;;;;;;;;;;;;5075560;28;19909;-21
2023/10/26 07:53:09;;;;;;;;;;;;;;;;;;5074943;28;19908;-22
2023/10/26 07:55:35;;;;;;;;;;;;;;;;;;5057287;28;20007;-23
2023/10/26 07:58:01;;;;;;;;;;;;;;;;;;5057325;28;19959;-21
2023/10/26 08:00:27;;;;;;;;;;;;;;;;;;5074862;28;19943;-21
2023/10/26 08:02:53;;;;;;;;;;;;;;;;;;5057032;28;19995;-21
2023/10/26 08:05:19;;;;;;;;;;;;;;;;;;5074940;28;19920;-23
2023/10/26 08:07:47;;;;;;;;;;;;;;;;;;5074506;28;19912;-21
2023/10/26 08:10:13;;;;;;;;;;;;;;;;;;5074686;28;19920;-22
2023/10/26 08:12:39;;;;;;;;;;;;;;;;;;5074594;28;19912;-23
2023/10/26 08:15:05;;;;;;;;;;;;;;;;;;5074971;28;20335;-23
2023/10/26 08:17:31;;;;;;;;;;;;;;;;;;5074980;28;19927;-21
2023/10/26 08:19:58;;;;;;;;;;;;;;;;;;5074519;28;19909;-21
2023/10/26 08:22:24;;;;;;;;;;;;;;;;;;5074353;28;19909;-22
2023/10/26 08:24:50;;;;;;;;;;;;;;;;;;5074669;28;19915;-20
2023/10/26 08:27:16;;;;;;;;;;;;;;;;;;5074961;28;20339;-22
2023/10/26 08:29:42;;;;;;;;;;;;;;;;;;5074631;28;19909;-21
2023/10/26 08:32:08;;;;;;;;;;;;;;;;;;5074603;28;19909;-22
2023/10/26 08:34:34;;;;;;;;;;;;;;;;;;5056902;28;19930;-23
2023/10/26 08:37:00;;;;;;;;;;;;;;;;;;5074804;28;19973;-21
2023/10/26 08:39:26;;;;;;;;;;;;;;;;;;5074236;28;19908;-20
2023/10/26 08:41:57;;;;;;;;;;;;;;;;;;5056584;28;19943;-21
2023/10/26 08:44:23;;;;;;;;;;;;;;;;;;5056133;28;19920;-23
2023/10/26 08:46:49;;;;;;;;;;;;;;;;;;5073811;28;20362;-21
2023/10/26 08:49:15;;;;;;;;;;;;;;;;;;5073659;28;19915;-21
2023/10/26 08:51:41;;;;;;;;;;;;;;;;;;5073590;28;19924;-24
2023/10/26 08:54:07;;;;;;;;;;;;;;;;;;5073862;28;20350;-23
2023/10/26 08:56:33;;;;;;;;;;;;;;;;;;5073591;28;20306;-22
2023/10/26 08:59:00;;;;;;;;;;;;;;;;;;5073903;28;19908;-20
2023/10/26 09:01:26;;;;;;;;;;;;;;;;;;5072881;28;19930;-21
2023/10/26 09:03:52;;;;;;;;;;;;;;;;;;5073405;28;20007;-21
2023/10/26 09:06:18;;;;;;;;;;;;;;;;;;5073786;28;20011;-22
2023/10/26 09:08:45;;;;;;;;;;;;;;;;;;5073561;28;20320;-22
2023/10/26 09:11:11;;;;;;;;;;;;;;;;;;5073433;28;19909;-22
2023/10/26 09:13:37;;;;;;;;;;;;;;;;;;5073429;28;19979;-23
2023/10/26 09:16:03;;;;;;;;;;;;;;;;;;5073405;28;20007;-21
2023/10/26 09:18:30;;;;;;;;;;;;;;;;;;5073464;28;19908;-20
2023/10/26 09:20:57;;;;;;;;;;;;;;;;;;5073397;28;19944;-20
2023/10/26 09:23:22;;;;;;;;;;;;;;;;;;5073531;28;20374;-21
2023/10/26 09:25:49;;;;;;;;;;;;;;;;;;5073645;28;19950;-23
2023/10/26 09:28:15;;;;;;;;;;;;;;;;;;5073906;28;19908;-22
2023/10/26 09:30:42;;;;;;;;;;;;;;;;;;5073916;28;19920;-22
2023/10/26 09:33:08;;;;;;;;;;;;;;;;;;5056037;28;19909;-22
2023/10/26 09:35:34;;;;;;;;;;;;;;;;;;5074184;28;20347;-22
2023/10/26 09:38:00;;;;;;;;;;;;;;;;;;5073909;28;19919;-21
2023/10/26 09:40:26;;;;;;;;;;;;;;;;;;5073774;28;19908;-21
2023/10/26 09:42:52;;;;;;;;;;;;;;;;;;5055946;28;19919;-21
2023/10/26 09:45:19;;;;;;;;;;;;;;;;;;5073902;28;20244;-22
2023/10/26 09:47:45;;;;;;;;;;;;;;;;;;5073750;28;19908;-22
2023/10/26 09:50:11;;;;;;;;;;;;;;;;;;5073856;28;19909;-23
2023/10/26 09:52:37;;;;;;;;;;;;;;;;;;5073842;28;20033;-21
2023/10/26 09:55:03;;;;;;;;;;;;;;;;;;5073934;28;20288;-20
2023/10/26 09:57:30;;;;;;;;;;;;;;;;;;5055878;28;19962;-21
2023/10/26 09:59:56;;;;;;;;;;;;;;;;;;5074276;28;19994;-21
2023/10/26 10:02:23;;;;;;;;;;;;;;;;;;5073443;28;19951;-21
2023/10/26 10:04:49;;;;;;;;;;;;;;;;;;5073643;28;19913;-21
2023/10/26 10:07:15;;;;;;;;;;;;;;;;;;5073900;28;19912;-20
2023/10/26 10:09:41;;;;;;;;;;;;;;;;;;5073567;28;20357;-20
2023/10/26 10:12:08;;;;;;;;;;;;;;;;;;5075088;28;19909;-20
2023/10/26 10:14:34;;;;;;;;;;;;;;;;;;5059868;28;19930;-23
2023/10/26 10:17:00;;;;;;;;;;;;;;;;;;5059377;28;20003;-22
2023/10/26 10:19:28;;;;;;;;;;;;;;;;;;5076836;28;19919;-22
2023/10/26 10:21:54;;;;;;;;;;;;;;;;;;5076717;28;20006;-19
2023/10/26 10:24:21;;;;;;;;;;;;;;;;;;5077043;28;19940;-20
2023/10/26 10:26:47;;;;;;;;;;;;;;;;;;5076960;28;19920;-21
2023/10/26 10:29:13;;;;;;;;;;;;;;;;;;5076504;28;19909;-22
2023/10/26 10:31:39;;;;;;;;;;;;;;;;;;5076328;28;19999;-22
2023/10/26 10:34:05;;;;;;;;;;;;;;;;;;5076339;28;19908;-20
2023/10/26 10:36:31;;;;;;;;;;;;;;;;;;5076265;28;19927;-20
2023/10/26 10:38:57;;;;;;;;;;;;;;;;;;5076423;28;20312;-21
2023/10/26 10:41:23;;;;;;;;;;;;;;;;;;5058566;28;19919;-21
2023/10/26 10:43:49;;;;;;;;;;;;;;;;;;5076264;28;19999;-22
2023/10/26 10:46:16;;;;;;;;;;;;;;;;;;5076326;28;19919;-23
2023/10/26 10:48:42;;;;;;;;;;;;;;;;;;5076361;28;19925;-20
2023/10/26 10:51:08;;;;;;;;;;;;;;;;;;5058580;28;19966;-22
2023/10/26 10:53:34;;;;;;;;;;;;;;;;;;5075998;28;19917;-21
2023/10/26 10:55:59;;;;;;;;;;;;;;;;;;5075764;28;19924;-19
2023/10/26 10:58:25;;;;;;;;;;;;;;;;;;5075926;28;20343;-20
2023/10/26 11:00:51;;;;;;;;;;;;;;;;;;5075859;28;20353;-23
2023/10/26 11:03:17;;;;;;;;;;;;;;;;;;5075379;28;19920;-23
2023/10/26 11:05:43;;;;;;;;;;;;;;;;;;5075502;28;19909;-20
2023/10/26 11:08:10;;;;;;;;;;;;;;;;;;5075562;28;20062;-21
2023/10/26 11:10:36;;;;;;;;;;;;;;;;;;5075540;28;20311;-20
2023/10/26 11:13:02;;;;;;;;;;;;;;;;;;5075606;28;19932;-19
2023/10/26 11:15:27;;;;;;;;;;;;;;;;;;5057682;28;19912;-22
2023/10/26 11:17:53;;;;;;;;;;;;;;;;;;5057615;28;19987;-22
2023/10/26 11:20:19;;;;;;;;;;;;;;;;;;5075573;28;19909;-23
2023/10/26 11:22:45;;;;;;;;;;;;;;;;;;5075452;28;20274;-20
2023/10/26 11:25:11;;;;;;;;;;;;;;;;;;5074961;28;19913;-21
2023/10/26 11:27:39;;;;;;;;;;;;;;;;;;5075737;28;19961;-20
2023/10/26 11:30:05;;;;;;;;;;;;;;;;;;5075506;28;19915;-21
2023/10/26 11:32:31;;;;;;;;;;;;;;;;;;5058608;28;19909;-20
2023/10/26 11:34:56;;;;;;;;;;;;;;;;;;5075696;28;20238;-23
2023/10/26 11:37:22;;;;;;;;;;;;;;;;;;5057952;28;19908;-22
2023/10/26 11:39:50;;;;;;;;;;;;;;;;;;5074805;28;21261;-22
2023/10/26 11:42:16;;;;;;;;;;;;;;;;;;5075300;28;19913;-21
2023/10/26 11:44:42;;;;;;;;;;;;;;;;;;5075609;28;20208;-24
2023/10/26 11:47:08;;;;;;;;;;;;;;;;;;5075611;28;19908;-22
2023/10/26 11:49:34;;;;;;;;;;;;;;;;;;5075287;28;19904;-20
2023/10/26 11:52:00;;;;;;;;;;;;;;;;;;5075340;28;19943;-21
2023/10/26 11:54:26;;;;;;;;;;;;;;;;;;5075289;28;20368;-20
2023/10/26 11:56:52;;;;;;;;;;;;;;;;;;5075148;28;19921;-24
2023/10/26 11:59:18;;;;;;;;;;;;;;;;;;5075248;28;19909;-23
2023/10/26 12:01:44;;;;;;;;;;;;;;;;;;5074891;28;19908;-22
2023/10/26 12:04:10;;;;;;;;;;;;;;;;;;5074742;28;19928;-21
2023/10/26 12:06:36;;;;;;;;;;;;;;;;;;5074824;28;20035;-20
2023/10/26 12:09:04;;;;;;;;;;;;;;;;;;5074938;28;19982;-21
2023/10/26 12:11:30;;;;;;;;;;;;;;;;;;5074996;28;19908;-20
2023/10/26 12:13:56;;;;;;;;;;;;;;;;;;5074662;28;20383;-20
2023/10/26 12:16:22;;;;;;;;;;;;;;;;;;5074537;28;19939;-21
2023/10/26 12:18:48;;;;;;;;;;;;;;;;;;5074577;28;19912;-20
2023/10/26 12:21:14;;;;;;;;;;;;;;;;;;5074950;28;19996;-22
2023/10/26 12:23:40;;;;;;;;;;;;;;;;;;5056885;28;19947;-22
2023/10/26 12:26:06;;;;;;;;;;;;;;;;;;5074734;28;19908;-21
2023/10/26 12:28:32;;;;;;;;;;;;;;;;;;5074467;28;20369;-21
2023/10/26 12:30:58;;;;;;;;;;;;;;;;;;5074367;28;20002;-21
2023/10/26 12:33:24;;;;;;;;;;;;;;;;;;5074259;28;19934;-21
2023/10/26 12:35:50;;;;;;;;;;;;;;;;;;5055392;28;20419;-21
2023/10/26 12:38:19;;;;;;;;;;;;;;;;;;5074249;28;19979;-23
2023/10/26 12:40:45;;;;;;;;;;;;;;;;;;5074038;28;19909;-21
2023/10/26 12:43:11;;;;;;;;;;;;;;;;;;5073900;28;20358;-23
2023/10/26 12:45:37;;;;;;;;;;;;;;;;;;5074262;28;19908;-22
2023/10/26 12:48:03;;;;;;;;;;;;;;;;;;5073813;28;19948;-20
2023/10/26 12:50:29;;;;;;;;;;;;;;;;;;5056455;28;19908;-21
2023/10/26 12:52:55;;;;;;;;;;;;;;;;;;5074093;28;20003;-19
2023/10/26 12:55:23;;;;;;;;;;;;;;;;;;5056315;28;20012;-21
2023/10/26 12:57:49;;;;;;;;;;;;;;;;;;5073886;28;19908;-21
2023/10/26 13:00:15;;;;;;;;;;;;;;;;;;5073902;28;19931;-20
2023/10/26 13:02:41;;;;;;;;;;;;;;;;;;5073923;28;19975;-21
2023/10/26 13:05:07;;;;;;;;;;;;;;;;;;5074168;28;19960;-21
2023/10/26 13:07:33;;;;;;;;;;;;;;;;;;5074329;28;19935;-21
2023/10/26 13:10:00;;;;;;;;;;;;;;;;;;5074283;28;19909;-20
2023/10/26 13:12:26;;;;;;;;;;;;;;;;;;5074061;28;19909;-21
2023/10/26 13:14:51;;;;;;;;;;;;;;;;;;5074319;28;19991;-20
2023/10/26 13:17:18;;;;;;;;;;;;;;;;;;5056509;28;19938;-22
2023/10/26 13:19:44;;;;;;;;;;;;;;;;;;5056329;28;20227;-20
2023/10/26 13:22:10;;;;;;;;;;;;;;;;;;5074445;28;19908;-21
2023/10/26 13:24:36;;;;;;;;;;;;;;;;;;5074056;28;20013;-21
2023/10/26 13:27:02;;;;;;;;;;;;;;;;;;5073937;28;20354;-20
2023/10/26 13:29:28;;;;;;;;;;;;;;;;;;5074000;28;19909;-21
2023/10/26 13:31:54;;;;;;;;;;;;;;;;;;5074003;28;20297;-21
2023/10/26 13:34:20;;;;;;;;;;;;;;;;;;5073977;28;20003;-23
2023/10/26 13:36:46;;;;;;;;;;;;;;;;;;5056256;28;19912;-21
2023/10/26 13:39:12;;;;;;;;;;;;;;;;;;5073826;28;20239;-21
2023/10/26 13:41:38;;;;;;;;;;;;;;;;;;5073843;28;19910;-21
2023/10/26 13:44:04;;;;;;;;;;;;;;;;;;5073990;28;20246;-20
2023/10/26 13:46:30;;;;;;;;;;;;;;;;;;5074262;28;19909;-21
2023/10/26 13:48:56;;;;;;;;;;;;;;;;;;5077564;28;20288;-21
2023/10/26 13:51:22;;;;;;;;;;;;;;;;;;5077611;28;19912;-21
2023/10/26 13:53:48;;;;;;;;;;;;;;;;;;5077712;28;19908;-21
2023/10/26 13:56:14;;;;;;;;;;;;;;;;;;5077429;28;19913;-19
2023/10/26 13:58:40;;;;;;;;;;;;;;;;;;5077493;28;19915;-22
2023/10/26 14:01:06;;;;;;;;;;;;;;;;;;5077249;28;20255;-20
2023/10/26 14:03:32;;;;;;;;;;;;;;;;;;5076782;28;20004;-22
2023/10/26 14:05:58;;;;;;;;;;;;;;;;;;5076642;28;20325;-21
2023/10/26 14:08:24;;;;;;;;;;;;;;;;;;5076740;28;19909;-21
2023/10/26 14:10:50;;;;;;;;;;;;;;;;;;5077329;28;19908;-21
2023/10/26 14:13:16;;;;;;;;;;;;;;;;;;5058979;28;19939;-21
2023/10/26 14:15:42;;;;;;;;;;;;;;;;;;5058864;28;19916;-20
2023/10/26 14:18:08;;;;;;;;;;;;;;;;;;5076932;28;19908;-20
2023/10/26 14:20:34;;;;;;;;;;;;;;;;;;5077127;28;19944;-20
2023/10/26 14:23:03;;;;;;;;;;;;;;;;;;5076873;28;19958;-20
2023/10/26 14:25:29;;;;;;;;;;;;;;;;;;5076541;28;19919;-23
2023/10/26 14:27:56;;;;;;;;;;;;;;;;;;5076945;28;19952;-21
2023/10/26 14:30:22;;;;;;;;;;;;;;;;;;5076709;28;19974;-21
2023/10/26 14:32:48;;;;;;;;;;;;;;;;;;5076685;28;20254;-21
2023/10/26 14:35:15;;;;;;;;;;;;;;;;;;5076584;28;19923;-20
2023/10/26 14:37:47;;;;;;;;;;;;;;;;;;5076745;28;20029;-21
2023/10/26 14:40:13;;;;;;;;;;;;;;;;;;5076798;28;20397;-20
2023/10/26 14:42:38;;;;;;;;;;;;;;;;;;5076778;28;19926;-22
2023/10/26 14:45:04;;;;;;;;;;;;;;;;;;5076656;28;19942;-22
2023/10/26 14:47:30;;;;;;;;;;;;;;;;;;5077111;28;19909;-22
2023/10/26 14:49:56;;;;;;;;;;;;;;;;;;5058861;28;20019;-21
2023/10/26 14:52:22;;;;;;;;;;;;;;;;;;5076452;28;19962;-21
2023/10/26 14:54:48;;;;;;;;;;;;;;;;;;5076679;28;20255;-22
2023/10/26 14:57:14;;;;;;;;;;;;;;;;;;5076681;28;19908;-22
2023/10/26 14:59:40;;;;;;;;;;;;;;;;;;5057611;28;19908;-22
2023/10/26 15:02:06;;;;;;;;;;;;;;;;;;5058634;28;19909;-22
2023/10/26 15:04:32;;;;;;;;;;;;;;;;;;5076280;28;19962;-21
2023/10/26 15:06:58;;;;;;;;;;;;;;;;;;5076535;28;19931;-20
2023/10/26 15:09:29;;;;;;;;;;;;;;;;;;5076242;28;19957;-22
2023/10/26 15:11:55;;;;;;;;;;;;;;;;;;5075773;28;20340;-24
2023/10/26 15:14:21;;;;;;;;;;;;;;;;;;5075554;28;20030;-21
2023/10/26 15:16:47;;;;;;;;;;;;;;;;;;5075326;28;20006;-21
2023/10/26 15:19:13;;;;;;;;;;;;;;;;;;5057502;28;19908;-20
2023/10/26 15:21:39;;;;;;;;;;;;;;;;;;5075361;28;20177;-21
2023/10/26 15:24:05;;;;;;;;;;;;;;;;;;5074979;28;19909;-21
2023/10/26 15:26:31;;;;;;;;;;;;;;;;;;5075088;28;19962;-22
2023/10/26 15:28:57;;;;;;;;;;;;;;;;;;5057225;28;20007;-21
2023/10/26 15:31:24;;;;;;;;;;;;;;;;;;5075442;28;20003;-23
2023/10/26 15:33:50;;;;;;;;;;;;;;;;;;5074883;28;19931;-23
2023/10/26 15:36:16;;;;;;;;;;;;;;;;;;5075383;28;19912;-21
2023/10/26 15:38:42;;;;;;;;;;;;;;;;;;5057798;28;19913;-26
2023/10/26 15:41:10;;;;;;;;;;;;;;;;;;5075619;28;20000;-22
2023/10/26 15:43:36;;;;;;;;;;;;;;;;;;5075460;28;19923;-21
2023/10/26 15:46:05;;;;;;;;;;;;;;;;;;5075566;28;19912;-22
2023/10/26 15:48:31;;;;;;;;;;;;;;;;;;5075395;28;19908;-21
2023/10/26 15:50:57;;;;;;;;;;;;;;;;;;5075156;28;20339;-20
2023/10/26 15:53:24;;;;;;;;;;;;;;;;;;5075234;28;19915;-20
2023/10/26 15:55:50;;;;;;;;;;;;;;;;;;5075275;28;20015;-20
2023/10/26 15:58:16;;;;;;;;;;;;;;;;;;5075268;28;19913;-21
2023/10/26 16:00:42;;;;;;;;;;;;;;;;;;5074781;28;19923;-23
2023/10/26 16:03:08;;;;;;;;;;;;;;;;;;5074598;28;20008;-22
2023/10/26 16:05:34;;;;;;;;;;;;;;;;;;5074679;28;19915;-20
2023/10/26 16:08:00;;;;;;;;;;;;;;;;;;5074726;28;19908;-21
2023/10/26 16:10:25;;;;;;;;;;;;;;;;;;5057101;28;20362;-22
2023/10/26 16:12:55;;;;;;;;;;;;;;;;;;5075129;28;19943;-21
2023/10/26 16:15:23;;;;;;;;;;;;;;;;;;5075084;28;19912;-20
2023/10/26 16:17:48;;;;;;;;;;;;;;;;;;5057072;28;19909;-20
2023/10/26 16:20:14;;;;;;;;;;;;;;;;;;5074971;28;19934;-22
2023/10/26 16:22:40;;;;;;;;;;;;;;;;;;5074655;28;20302;-22
2023/10/26 16:25:06;;;;;;;;;;;;;;;;;;5074649;28;20013;-25
2023/10/26 16:27:33;;;;;;;;;;;;;;;;;;5074591;28;19913;-20
2023/10/26 16:29:59;;;;;;;;;;;;;;;;;;5056788;28;19998;-20
2023/10/26 16:32:26;;;;;;;;;;;;;;;;;;5056583;28;19908;-21
2023/10/26 16:34:52;;;;;;;;;;;;;;;;;;5074136;28;19944;-21
2023/10/26 16:37:18;;;;;;;;;;;;;;;;;;5074199;28;19920;-20
2023/10/26 16:39:44;;;;;;;;;;;;;;;;;;5073880;28;19908;-23